sensor_id;sensor_type;location;lat;lon;timestamp;pressure;altitude;pressure_sealevel;temperature;humidity
34696;BME280;75243;51.138;17.370;2024-03-22T00:01:46;100554.70;;;9.39;85.22
34696;BME280;75243;51.138;17.370;2024-03-22T00:04:47;100556.21;;;9.36;85.03
34696;BME280;75243;51.138;17.370;2024-03-22T00:07:50;100561.00;;;9.33;84.98
34696;BME280;75243;51.138;17.370;2024-03-22T00:10:51;100554.64;;;9.27;85.10
34696;BME280;75243;51.138;17.370;2024-03-22T00:13:55;100556.43;;;9.21;85.14
34696;BME280;75243;51.138;17.370;2024-03-22T00:16:56;100554.54;;;9.15;85.13
34696;BME280;75243;51.138;17.370;2024-03-22T00:19:56;100554.36;;;9.10;85.05
34696;BME280;75243;51.138;17.370;2024-03-22T00:22:57;100554.72;;;9.06;85.33
34696;BME280;75243;51.138;17.370;2024-03-22T00:25:58;100555.08;;;9.03;85.44
34696;BME280;75243;51.138;17.370;2024-03-22T00:28:58;100550.55;;;9.00;85.32
34696;BME280;75243;51.138;17.370;2024-03-22T00:31:59;100545.45;;;8.98;85.40
34696;BME280;75243;51.138;17.370;2024-03-22T00:35:00;100548.11;;;8.97;85.45
34696;BME280;75243;51.138;17.370;2024-03-22T00:38:01;100547.88;;;8.96;85.51
34696;BME280;75243;51.138;17.370;2024-03-22T00:41:03;100551.42;;;8.96;85.63
34696;BME280;75243;51.138;17.370;2024-03-22T00:44:08;100553.95;;;8.97;85.65
34696;BME280;75243;51.138;17.370;2024-03-22T00:47:09;100552.95;;;8.99;86.00
34696;BME280;75243;51.138;17.370;2024-03-22T00:50:12;100552.19;;;8.97;86.24
34696;BME280;75243;51.138;17.370;2024-03-22T00:53:13;100548.67;;;8.97;86.28
34696;BME280;75243;51.138;17.370;2024-03-22T00:56:13;100546.36;;;8.95;86.36
34696;BME280;75243;51.138;17.370;2024-03-22T00:59:14;100550.04;;;8.97;86.54
34696;BME280;75243;51.138;17.370;2024-03-22T01:02:28;100552.80;;;9.01;86.19
34696;BME280;75243;51.138;17.370;2024-03-22T01:05:31;100551.06;;;9.02;86.34
34696;BME280;75243;51.138;17.370;2024-03-22T01:08:36;100543.09;;;9.03;86.45
34696;BME280;75243;51.138;17.370;2024-03-22T01:11:39;100551.13;;;9.03;86.29
34696;BME280;75243;51.138;17.370;2024-03-22T01:14:40;100551.14;;;9.03;86.25
34696;BME280;75243;51.138;17.370;2024-03-22T01:17:41;100549.91;;;9.05;86.04
34696;BME280;75243;51.138;17.370;2024-03-22T01:20:47;100545.14;;;9.05;86.09
34696;BME280;75243;51.138;17.370;2024-03-22T01:23:54;100533.66;;;9.03;86.01
34696;BME280;75243;51.138;17.370;2024-03-22T01:27:10;100534.27;;;9.01;85.78
34696;BME280;75243;51.138;17.370;2024-03-22T01:30:23;100540.88;;;8.97;85.50
34696;BME280;75243;51.138;17.370;2024-03-22T01:33:31;100535.13;;;8.93;85.16
34696;BME280;75243;51.138;17.370;2024-03-22T01:36:34;100533.38;;;8.89;84.90
34696;BME280;75243;51.138;17.370;2024-03-22T01:39:38;100536.25;;;8.85;84.56
34696;BME280;75243;51.138;17.370;2024-03-22T01:42:41;100531.89;;;8.81;84.24
34696;BME280;75243;51.138;17.370;2024-03-22T01:45:41;100529.17;;;8.78;84.04
34696;BME280;75243;51.138;17.370;2024-03-22T01:48:42;100531.19;;;8.75;83.83
34696;BME280;75243;51.138;17.370;2024-03-22T01:51:43;100523.04;;;8.72;83.52
34696;BME280;75243;51.138;17.370;2024-03-22T01:54:44;100518.27;;;8.68;83.44
34696;BME280;75243;51.138;17.370;2024-03-22T01:57:44;100520.89;;;8.64;83.19
34696;BME280;75243;51.138;17.370;2024-03-22T02:00:49;100518.56;;;8.61;83.08
34696;BME280;75243;51.138;17.370;2024-03-22T02:03:50;100520.10;;;8.60;83.07
34696;BME280;75243;51.138;17.370;2024-03-22T02:06:51;100521.29;;;8.57;82.91
34696;BME280;75243;51.138;17.370;2024-03-22T02:09:56;100521.88;;;8.54;82.74
34696;BME280;75243;51.138;17.370;2024-03-22T02:12:57;100522.30;;;8.53;82.82
34696;BME280;75243;51.138;17.370;2024-03-22T02:15:58;100512.05;;;8.52;82.82
34696;BME280;75243;51.138;17.370;2024-03-22T02:19:01;100513.81;;;8.50;82.58
34696;BME280;75243;51.138;17.370;2024-03-22T02:22:02;100514.83;;;8.48;82.48
34696;BME280;75243;51.138;17.370;2024-03-22T02:25:03;100512.73;;;8.46;82.53
34696;BME280;75243;51.138;17.370;2024-03-22T02:28:03;100507.62;;;8.44;82.48
34696;BME280;75243;51.138;17.370;2024-03-22T02:31:04;100508.13;;;8.43;82.52
34696;BME280;75243;51.138;17.370;2024-03-22T02:34:05;100505.91;;;8.40;82.49
34696;BME280;75243;51.138;17.370;2024-03-22T02:37:05;100512.29;;;8.38;82.53
34696;BME280;75243;51.138;17.370;2024-03-22T02:40:06;100508.67;;;8.35;82.29
34696;BME280;75243;51.138;17.370;2024-03-22T02:43:07;100511.20;;;8.32;82.50
34696;BME280;75243;51.138;17.370;2024-03-22T02:46:07;100508.44;;;8.28;82.65
34696;BME280;75243;51.138;17.370;2024-03-22T02:49:08;100508.70;;;8.23;82.79
34696;BME280;75243;51.138;17.370;2024-03-22T02:52:08;100507.34;;;8.19;83.03
34696;BME280;75243;51.138;17.370;2024-03-22T02:55:09;100509.09;;;8.15;83.04
34696;BME280;75243;51.138;17.370;2024-03-22T02:58:09;100511.20;;;8.11;83.39
34696;BME280;75243;51.138;17.370;2024-03-22T03:01:10;100508.99;;;8.08;83.52
34696;BME280;75243;51.138;17.370;2024-03-22T03:04:11;100510.20;;;8.05;83.78
34696;BME280;75243;51.138;17.370;2024-03-22T03:07:11;100506.77;;;8.02;84.13
34696;BME280;75243;51.138;17.370;2024-03-22T03:10:12;100505.05;;;7.99;83.95
34696;BME280;75243;51.138;17.370;2024-03-22T03:13:13;100499.54;;;7.98;84.07
34696;BME280;75243;51.138;17.370;2024-03-22T03:16:13;100497.02;;;7.97;84.22
34696;BME280;75243;51.138;17.370;2024-03-22T03:19:14;100494.21;;;7.95;84.38
34696;BME280;75243;51.138;17.370;2024-03-22T03:22:14;100490.07;;;7.94;84.50
34696;BME280;75243;51.138;17.370;2024-03-22T03:25:15;100489.09;;;7.93;84.40
34696;BME280;75243;51.138;17.370;2024-03-22T03:28:16;100480.23;;;7.92;84.58
34696;BME280;75243;51.138;17.370;2024-03-22T03:31:19;100478.80;;;7.90;84.91
34696;BME280;75243;51.138;17.370;2024-03-22T03:34:20;100477.71;;;7.88;84.97
34696;BME280;75243;51.138;17.370;2024-03-22T03:37:20;100477.40;;;7.86;84.99
34696;BME280;75243;51.138;17.370;2024-03-22T03:40:24;100481.82;;;7.84;85.30
34696;BME280;75243;51.138;17.370;2024-03-22T03:43:27;100486.85;;;7.83;85.28
34696;BME280;75243;51.138;17.370;2024-03-22T03:46:27;100489.70;;;7.82;85.55
34696;BME280;75243;51.138;17.370;2024-03-22T03:49:30;100487.48;;;7.81;85.63
34696;BME280;75243;51.138;17.370;2024-03-22T03:52:31;100481.02;;;7.81;85.88
34696;BME280;75243;51.138;17.370;2024-03-22T03:55:31;100487.52;;;7.79;86.05
34696;BME280;75243;51.138;17.370;2024-03-22T03:58:33;100487.23;;;7.78;86.28
34696;BME280;75243;51.138;17.370;2024-03-22T04:01:35;100483.38;;;7.76;86.49
34696;BME280;75243;51.138;17.370;2024-03-22T04:04:35;100486.60;;;7.76;86.78
34696;BME280;75243;51.138;17.370;2024-03-22T04:07:39;100485.77;;;7.73;86.84
34696;BME280;75243;51.138;17.370;2024-03-22T04:10:50;100489.99;;;7.72;87.00
34696;BME280;75243;51.138;17.370;2024-03-22T04:13:52;100491.59;;;7.70;87.32
34696;BME280;75243;51.138;17.370;2024-03-22T04:16:52;100494.88;;;7.68;87.43
34696;BME280;75243;51.138;17.370;2024-03-22T04:19:59;100500.88;;;7.68;87.62
34696;BME280;75243;51.138;17.370;2024-03-22T04:23:03;100498.23;;;7.66;87.87
34696;BME280;75243;51.138;17.370;2024-03-22T04:26:03;100496.52;;;7.63;88.08
34696;BME280;75243;51.138;17.370;2024-03-22T04:29:06;100490.75;;;7.63;88.10
34696;BME280;75243;51.138;17.370;2024-03-22T04:32:10;100491.36;;;7.62;88.37
34696;BME280;75243;51.138;17.370;2024-03-22T04:35:11;100485.73;;;7.62;88.73
34696;BME280;75243;51.138;17.370;2024-03-22T04:38:11;100478.94;;;7.61;88.86
34696;BME280;75243;51.138;17.370;2024-03-22T04:41:15;100482.30;;;7.61;89.05
34696;BME280;75243;51.138;17.370;2024-03-22T04:44:24;100488.33;;;7.60;89.10
34696;BME280;75243;51.138;17.370;2024-03-22T04:47:25;100485.83;;;7.61;89.20
34696;BME280;75243;51.138;17.370;2024-03-22T04:50:26;100490.03;;;7.61;89.48
34696;BME280;75243;51.138;17.370;2024-03-22T04:53:27;100493.79;;;7.60;89.38
34696;BME280;75243;51.138;17.370;2024-03-22T04:56:35;100492.14;;;7.61;89.50
34696;BME280;75243;51.138;17.370;2024-03-22T04:59:36;100486.55;;;7.62;89.50
34696;BME280;75243;51.138;17.370;2024-03-22T05:02:36;100492.64;;;7.63;89.75
34696;BME280;75243;51.138;17.370;2024-03-22T05:05:40;100492.19;;;7.64;89.86
34696;BME280;75243;51.138;17.370;2024-03-22T05:08:41;100495.98;;;7.66;90.06
34696;BME280;75243;51.138;17.370;2024-03-22T05:11:44;100496.06;;;7.67;90.07
34696;BME280;75243;51.138;17.370;2024-03-22T05:14:52;100494.78;;;7.67;90.14
34696;BME280;75243;51.138;17.370;2024-03-22T05:18:13;100492.87;;;7.69;90.34
34696;BME280;75243;51.138;17.370;2024-03-22T05:21:14;100492.52;;;7.71;90.40
34696;BME280;75243;51.138;17.370;2024-03-22T05:24:14;100489.80;;;7.72;90.59
34696;BME280;75243;51.138;17.370;2024-03-22T05:27:19;100488.98;;;7.71;90.69
34696;BME280;75243;51.138;17.370;2024-03-22T05:30:19;100484.06;;;7.71;91.02
34696;BME280;75243;51.138;17.370;2024-03-22T05:33:23;100484.27;;;7.71;90.93
34696;BME280;75243;51.138;17.370;2024-03-22T05:36:29;100490.35;;;7.71;91.03
34696;BME280;75243;51.138;17.370;2024-03-22T05:39:29;100493.81;;;7.72;91.13
34696;BME280;75243;51.138;17.370;2024-03-22T05:42:44;100493.11;;;7.74;91.19
34696;BME280;75243;51.138;17.370;2024-03-22T05:45:55;100496.50;;;7.75;91.27
34696;BME280;75243;51.138;17.370;2024-03-22T05:48:57;100500.83;;;7.76;91.26
34696;BME280;75243;51.138;17.370;2024-03-22T05:52:17;100498.99;;;7.79;91.06
34696;BME280;75243;51.138;17.370;2024-03-22T05:55:18;100496.16;;;7.81;91.16
34696;BME280;75243;51.138;17.370;2024-03-22T05:58:22;100498.69;;;7.82;91.16
34696;BME280;75243;51.138;17.370;2024-03-22T06:01:28;100499.92;;;7.84;91.17
34696;BME280;75243;51.138;17.370;2024-03-22T06:04:34;100499.27;;;7.85;91.13
34696;BME280;75243;51.138;17.370;2024-03-22T06:10:55;100493.69;;;7.93;91.25
34696;BME280;75243;51.138;17.370;2024-03-22T06:13:56;100495.05;;;7.95;91.11
34696;BME280;75243;51.138;17.370;2024-03-22T06:16:57;100492.81;;;7.98;90.95
34696;BME280;75243;51.138;17.370;2024-03-22T06:19:57;100492.41;;;8.03;90.68
34696;BME280;75243;51.138;17.370;2024-03-22T06:22:58;100492.44;;;8.08;90.65
34696;BME280;75243;51.138;17.370;2024-03-22T06:25:59;100490.98;;;8.15;90.26
34696;BME280;75243;51.138;17.370;2024-03-22T06:29:09;100491.27;;;8.17;89.80
34696;BME280;75243;51.138;17.370;2024-03-22T06:32:15;100486.27;;;8.20;89.64
34696;BME280;75243;51.138;17.370;2024-03-22T06:35:22;100486.21;;;8.20;89.22
34696;BME280;75243;51.138;17.370;2024-03-22T06:38:22;100491.14;;;8.20;88.99
34696;BME280;75243;51.138;17.370;2024-03-22T06:41:27;100487.58;;;8.19;88.80
34696;BME280;75243;51.138;17.370;2024-03-22T06:44:28;100487.30;;;8.18;88.62
34696;BME280;75243;51.138;17.370;2024-03-22T06:47:29;100488.92;;;8.20;88.62
34696;BME280;75243;51.138;17.370;2024-03-22T06:50:29;100485.29;;;8.23;88.39
34696;BME280;75243;51.138;17.370;2024-03-22T06:53:30;100483.39;;;8.30;88.67
34696;BME280;75243;51.138;17.370;2024-03-22T06:56:33;100484.04;;;8.40;88.43
34696;BME280;75243;51.138;17.370;2024-03-22T06:59:34;100481.30;;;8.51;88.18
34696;BME280;75243;51.138;17.370;2024-03-22T07:02:34;100478.33;;;8.62;87.42
34696;BME280;75243;51.138;17.370;2024-03-22T07:05:46;100475.26;;;8.71;87.07
34696;BME280;75243;51.138;17.370;2024-03-22T07:12:00;100463.33;;;9.02;86.42
34696;BME280;75243;51.138;17.370;2024-03-22T07:15:01;100456.86;;;9.18;85.70
34696;BME280;75243;51.138;17.370;2024-03-22T07:18:05;100455.35;;;9.25;84.64
34696;BME280;75243;51.138;17.370;2024-03-22T07:21:06;100453.27;;;9.24;84.29
34696;BME280;75243;51.138;17.370;2024-03-22T07:24:07;100450.31;;;9.22;83.77
34696;BME280;75243;51.138;17.370;2024-03-22T07:27:11;100463.21;;;9.20;83.11
34696;BME280;75243;51.138;17.370;2024-03-22T07:30:11;100461.73;;;9.30;83.24
34696;BME280;75243;51.138;17.370;2024-03-22T07:33:12;100464.48;;;9.47;82.78
34696;BME280;75243;51.138;17.370;2024-03-22T07:36:20;100468.30;;;9.60;82.09
34696;BME280;75243;51.138;17.370;2024-03-22T07:39:21;100465.17;;;9.70;81.66
34696;BME280;75243;51.138;17.370;2024-03-22T07:42:24;100473.84;;;9.68;81.17
34696;BME280;75243;51.138;17.370;2024-03-22T07:45:24;100471.73;;;9.62;81.03
34696;BME280;75243;51.138;17.370;2024-03-22T07:48:25;100471.77;;;9.62;80.99
34696;BME280;75243;51.138;17.370;2024-03-22T07:51:38;100467.42;;;9.61;80.79
34696;BME280;75243;51.138;17.370;2024-03-22T07:54:39;100463.02;;;9.58;80.36
34696;BME280;75243;51.138;17.370;2024-03-22T07:57:43;100454.11;;;9.55;80.21
34696;BME280;75243;51.138;17.370;2024-03-22T08:00:49;100450.89;;;9.57;79.93
34696;BME280;75243;51.138;17.370;2024-03-22T08:03:53;100441.73;;;9.62;80.19
34696;BME280;75243;51.138;17.370;2024-03-22T08:07:17;100433.13;;;9.67;80.05
34696;BME280;75243;51.138;17.370;2024-03-22T08:10:17;100433.25;;;9.66;79.35
34696;BME280;75243;51.138;17.370;2024-03-22T08:13:18;100429.60;;;9.60;79.37
34696;BME280;75243;51.138;17.370;2024-03-22T08:16:19;100427.59;;;9.66;79.40
34696;BME280;75243;51.138;17.370;2024-03-22T08:19:20;100430.13;;;9.76;79.23
34696;BME280;75243;51.138;17.370;2024-03-22T08:22:43;100426.91;;;9.94;79.14
34696;BME280;75243;51.138;17.370;2024-03-22T08:25:48;100419.37;;;10.07;78.95
34696;BME280;75243;51.138;17.370;2024-03-22T08:29:09;100418.47;;;10.16;78.43
34696;BME280;75243;51.138;17.370;2024-03-22T08:32:34;100418.44;;;10.23;78.27
34696;BME280;75243;51.138;17.370;2024-03-22T08:35:56;100412.17;;;10.24;77.84
34696;BME280;75243;51.138;17.370;2024-03-22T08:39:02;100412.61;;;10.18;76.97
34696;BME280;75243;51.138;17.370;2024-03-22T08:42:03;100409.35;;;10.14;76.94
34696;BME280;75243;51.138;17.370;2024-03-22T08:45:06;100409.05;;;10.18;77.32
34696;BME280;75243;51.138;17.370;2024-03-22T08:48:10;100398.56;;;10.38;77.50
34696;BME280;75243;51.138;17.370;2024-03-22T08:51:13;100398.24;;;10.58;77.56
34696;BME280;75243;51.138;17.370;2024-03-22T08:57:41;100388.60;;;10.91;76.57
34696;BME280;75243;51.138;17.370;2024-03-22T09:00:49;100381.17;;;10.99;76.07
34696;BME280;75243;51.138;17.370;2024-03-22T09:04:38;100368.98;;;11.07;75.38
34696;BME280;75243;51.138;17.370;2024-03-22T09:07:38;100371.39;;;11.13;75.16
34696;BME280;75243;51.138;17.370;2024-03-22T09:10:39;100362.32;;;11.22;74.72
34696;BME280;75243;51.138;17.370;2024-03-22T09:13:42;100360.38;;;11.40;74.39
34696;BME280;75243;51.138;17.370;2024-03-22T09:20:16;100354.74;;;11.67;73.43
34696;BME280;75243;51.138;17.370;2024-03-22T09:23:16;100351.91;;;11.69;73.18
34696;BME280;75243;51.138;17.370;2024-03-22T09:26:28;100355.36;;;11.75;73.17
34696;BME280;75243;51.138;17.370;2024-03-22T09:29:38;100354.79;;;11.91;73.02
34696;BME280;75243;51.138;17.370;2024-03-22T09:32:39;100357.21;;;12.53;73.18
34696;BME280;75243;51.138;17.370;2024-03-22T09:36:03;100355.42;;;13.20;71.98
34696;BME280;75243;51.138;17.370;2024-03-22T09:39:16;100355.84;;;13.46;70.30
34696;BME280;75243;51.138;17.370;2024-03-22T09:49:38;100348.31;;;12.92;68.85
34696;BME280;75243;51.138;17.370;2024-03-22T09:52:52;100345.29;;;12.76;69.00
34696;BME280;75243;51.138;17.370;2024-03-22T09:56:01;100343.86;;;12.66;69.03
34696;BME280;75243;51.138;17.370;2024-03-22T09:59:26;100341.98;;;12.63;69.01
34696;BME280;75243;51.138;17.370;2024-03-22T10:02:36;100338.84;;;12.67;68.58
34696;BME280;75243;51.138;17.370;2024-03-22T10:05:48;100334.84;;;12.58;67.61
34696;BME280;75243;51.138;17.370;2024-03-22T10:08:51;100331.32;;;12.56;68.36
34696;BME280;75243;51.138;17.370;2024-03-22T10:12:16;100327.05;;;12.66;68.39
34696;BME280;75243;51.138;17.370;2024-03-22T10:15:16;100321.41;;;12.83;68.26
34696;BME280;75243;51.138;17.370;2024-03-22T10:18:23;100313.47;;;12.96;67.82
34696;BME280;75243;51.138;17.370;2024-03-22T10:21:23;100312.98;;;13.04;67.08
34696;BME280;75243;51.138;17.370;2024-03-22T10:24:24;100311.41;;;12.94;67.06
34696;BME280;75243;51.138;17.370;2024-03-22T10:27:27;100308.59;;;12.84;67.03
34696;BME280;75243;51.138;17.370;2024-03-22T10:30:30;100305.74;;;12.72;66.85
34696;BME280;75243;51.138;17.370;2024-03-22T10:33:41;100298.43;;;12.65;66.87
34696;BME280;75243;51.138;17.370;2024-03-22T10:36:48;100301.45;;;12.65;67.08
34696;BME280;75243;51.138;17.370;2024-03-22T10:39:55;100301.33;;;12.73;66.98
34696;BME280;75243;51.138;17.370;2024-03-22T10:43:01;100295.79;;;12.88;67.30
34696;BME280;75243;51.138;17.370;2024-03-22T10:46:05;100293.61;;;13.11;67.13
34696;BME280;75243;51.138;17.370;2024-03-22T10:49:10;100294.77;;;13.38;66.70
34696;BME280;75243;51.138;17.370;2024-03-22T10:52:58;100295.85;;;13.59;66.03
34696;BME280;75243;51.138;17.370;2024-03-22T10:56:21;100292.61;;;13.59;64.97
34696;BME280;75243;51.138;17.370;2024-03-22T10:59:24;100283.63;;;13.48;64.77
34696;BME280;75243;51.138;17.370;2024-03-22T11:05:47;100275.05;;;13.26;64.52
34696;BME280;75243;51.138;17.370;2024-03-22T11:09:05;100272.90;;;13.32;64.66
34696;BME280;75243;51.138;17.370;2024-03-22T11:12:08;100270.52;;;13.36;64.26
34696;BME280;75243;51.138;17.370;2024-03-22T11:15:28;100267.55;;;13.49;64.56
34696;BME280;75243;51.138;17.370;2024-03-22T11:18:34;100258.63;;;13.58;62.53
34696;BME280;75243;51.138;17.370;2024-03-22T11:21:58;100252.72;;;13.58;61.16
34696;BME280;75243;51.138;17.370;2024-03-22T11:25:08;100244.50;;;13.54;60.59
34696;BME280;75243;51.138;17.370;2024-03-22T11:28:14;100241.67;;;13.57;60.69
34696;BME280;75243;51.138;17.370;2024-03-22T11:31:19;100241.90;;;13.61;60.51
34696;BME280;75243;51.138;17.370;2024-03-22T11:34:27;100235.14;;;13.63;60.20
34696;BME280;75243;51.138;17.370;2024-03-22T11:37:53;100227.84;;;13.61;59.97
34696;BME280;75243;51.138;17.370;2024-03-22T11:40:56;100219.70;;;13.61;59.24
34696;BME280;75243;51.138;17.370;2024-03-22T11:44:01;100208.89;;;13.59;59.16
34696;BME280;75243;51.138;17.370;2024-03-22T11:47:02;100200.20;;;13.65;59.88
34696;BME280;75243;51.138;17.370;2024-03-22T11:50:06;100193.14;;;13.78;59.69
34696;BME280;75243;51.138;17.370;2024-03-22T11:53:07;100185.58;;;13.83;58.67
34696;BME280;75243;51.138;17.370;2024-03-22T11:56:18;100182.27;;;13.75;58.06
34696;BME280;75243;51.138;17.370;2024-03-22T11:59:21;100174.11;;;13.65;58.16
34696;BME280;75243;51.138;17.370;2024-03-22T12:02:25;100169.17;;;13.61;58.37
34696;BME280;75243;51.138;17.370;2024-03-22T12:05:32;100168.05;;;13.57;58.17
34696;BME280;75243;51.138;17.370;2024-03-22T12:08:38;100165.21;;;13.53;58.22
34696;BME280;75243;51.138;17.370;2024-03-22T12:11:40;100160.84;;;13.51;58.08
34696;BME280;75243;51.138;17.370;2024-03-22T12:15:01;100152.88;;;13.51;58.29
34696;BME280;75243;51.138;17.370;2024-03-22T12:18:08;100149.13;;;13.52;58.59
34696;BME280;75243;51.138;17.370;2024-03-22T12:21:31;100140.27;;;13.55;58.14
34696;BME280;75243;51.138;17.370;2024-03-22T12:24:32;100139.85;;;13.57;58.11
34696;BME280;75243;51.138;17.370;2024-03-22T12:27:33;100136.58;;;13.56;57.99
34696;BME280;75243;51.138;17.370;2024-03-22T12:30:37;100128.39;;;13.56;57.99
34696;BME280;75243;51.138;17.370;2024-03-22T12:33:37;100126.15;;;13.59;57.86
34696;BME280;75243;51.138;17.370;2024-03-22T12:36:40;100121.03;;;13.58;57.89
34696;BME280;75243;51.138;17.370;2024-03-22T12:39:44;100113.37;;;13.63;57.77
34696;BME280;75243;51.138;17.370;2024-03-22T12:46:12;100108.44;;;13.68;56.98
34696;BME280;75243;51.138;17.370;2024-03-22T12:49:20;100108.04;;;13.66;57.06
34696;BME280;75243;51.138;17.370;2024-03-22T12:52:23;100108.10;;;13.64;56.88
34696;BME280;75243;51.138;17.370;2024-03-22T12:55:24;100100.19;;;13.57;56.71
34696;BME280;75243;51.138;17.370;2024-03-22T12:58:29;100097.91;;;13.50;56.98
34696;BME280;75243;51.138;17.370;2024-03-22T13:01:30;100097.91;;;13.42;57.04
34696;BME280;75243;51.138;17.370;2024-03-22T13:04:42;100097.89;;;13.38;57.27
34696;BME280;75243;51.138;17.370;2024-03-22T13:07:43;100094.03;;;13.37;57.36
34696;BME280;75243;51.138;17.370;2024-03-22T13:10:47;100090.33;;;13.37;57.25
34696;BME280;75243;51.138;17.370;2024-03-22T13:13:56;100085.20;;;13.36;57.01
34696;BME280;75243;51.138;17.370;2024-03-22T13:16:57;100078.15;;;13.35;57.33
34696;BME280;75243;51.138;17.370;2024-03-22T13:20:01;100074.02;;;13.37;57.27
34696;BME280;75243;51.138;17.370;2024-03-22T13:23:03;100071.19;;;13.37;57.15
34696;BME280;75243;51.138;17.370;2024-03-22T13:26:04;100063.98;;;13.38;57.11
34696;BME280;75243;51.138;17.370;2024-03-22T13:29:18;100058.52;;;13.40;56.83
34696;BME280;75243;51.138;17.370;2024-03-22T13:32:21;100048.88;;;13.36;56.49
34696;BME280;75243;51.138;17.370;2024-03-22T13:35:25;100044.89;;;13.36;56.77
34696;BME280;75243;51.138;17.370;2024-03-22T13:38:27;100040.08;;;13.37;56.74
34696;BME280;75243;51.138;17.370;2024-03-22T13:41:30;100038.35;;;13.41;57.08
34696;BME280;75243;51.138;17.370;2024-03-22T13:44:32;100030.79;;;13.43;56.96
34696;BME280;75243;51.138;17.370;2024-03-22T13:47:33;100023.17;;;13.48;57.05
34696;BME280;75243;51.138;17.370;2024-03-22T13:50:38;100018.84;;;13.56;56.97
34696;BME280;75243;51.138;17.370;2024-03-22T13:53:51;100015.27;;;13.60;56.78
34696;BME280;75243;51.138;17.370;2024-03-22T13:56:58;100013.11;;;13.66;56.76
34696;BME280;75243;51.138;17.370;2024-03-22T14:00:19;100002.40;;;13.72;56.89
34696;BME280;75243;51.138;17.370;2024-03-22T14:03:45;100001.38;;;13.77;56.57
34696;BME280;75243;51.138;17.370;2024-03-22T14:06:59;100000.80;;;13.76;55.94
34696;BME280;75243;51.138;17.370;2024-03-22T14:10:02;99994.44;;;13.75;56.08
34696;BME280;75243;51.138;17.370;2024-03-22T14:13:03;99990.96;;;13.74;55.85
34696;BME280;75243;51.138;17.370;2024-03-22T14:16:04;99989.27;;;13.72;55.97
34696;BME280;75243;51.138;17.370;2024-03-22T14:19:10;99990.34;;;13.72;56.26
34696;BME280;75243;51.138;17.370;2024-03-22T14:22:21;99986.28;;;13.73;56.26
34696;BME280;75243;51.138;17.370;2024-03-22T14:25:25;99978.66;;;13.71;56.10
34696;BME280;75243;51.138;17.370;2024-03-22T14:28:42;99974.44;;;13.70;55.99
34696;BME280;75243;51.138;17.370;2024-03-22T14:32:15;99975.23;;;13.67;56.09
34696;BME280;75243;51.138;17.370;2024-03-22T14:35:25;99971.60;;;13.68;55.81
34696;BME280;75243;51.138;17.370;2024-03-22T14:38:25;99967.27;;;13.67;55.31
34696;BME280;75243;51.138;17.370;2024-03-22T14:41:26;99960.55;;;13.67;55.87
34696;BME280;75243;51.138;17.370;2024-03-22T14:44:30;99956.36;;;13.66;55.04
34696;BME280;75243;51.138;17.370;2024-03-22T14:47:35;99952.33;;;13.57;55.01
34696;BME280;75243;51.138;17.370;2024-03-22T14:50:36;99949.70;;;13.50;54.70
34696;BME280;75243;51.138;17.370;2024-03-22T14:53:38;99946.09;;;13.40;55.25
34696;BME280;75243;51.138;17.370;2024-03-22T14:56:39;99942.56;;;13.37;55.33
34696;BME280;75243;51.138;17.370;2024-03-22T14:59:43;99936.08;;;13.31;55.08
34696;BME280;75243;51.138;17.370;2024-03-22T15:02:44;99930.63;;;13.23;54.99
34696;BME280;75243;51.138;17.370;2024-03-22T15:05:51;99928.05;;;13.16;54.95
34696;BME280;75243;51.138;17.370;2024-03-22T15:09:01;99922.77;;;13.10;54.96
34696;BME280;75243;51.138;17.370;2024-03-22T15:12:09;99913.38;;;13.07;55.19
34696;BME280;75243;51.138;17.370;2024-03-22T15:15:10;99907.16;;;13.06;55.32
34696;BME280;75243;51.138;17.370;2024-03-22T15:18:20;99900.56;;;13.06;55.61
34696;BME280;75243;51.138;17.370;2024-03-22T15:21:21;99899.94;;;13.05;55.70
34696;BME280;75243;51.138;17.370;2024-03-22T15:24:33;99895.34;;;13.00;55.83
34696;BME280;75243;51.138;17.370;2024-03-22T15:27:34;99893.83;;;12.99;55.92
34696;BME280;75243;51.138;17.370;2024-03-22T15:30:37;99890.91;;;13.00;56.10
34696;BME280;75243;51.138;17.370;2024-03-22T15:33:47;99885.78;;;13.00;56.37
34696;BME280;75243;51.138;17.370;2024-03-22T15:36:57;99882.95;;;12.98;56.39
34696;BME280;75243;51.138;17.370;2024-03-22T15:40:04;99881.14;;;12.93;56.59
34696;BME280;75243;51.138;17.370;2024-03-22T15:43:06;99878.20;;;12.91;56.87
34696;BME280;75243;51.138;17.370;2024-03-22T15:46:10;99871.09;;;12.90;57.05
34696;BME280;75243;51.138;17.370;2024-03-22T15:49:17;99869.36;;;12.88;57.22
34696;BME280;75243;51.138;17.370;2024-03-22T15:52:21;99867.92;;;12.85;57.37
34696;BME280;75243;51.138;17.370;2024-03-22T15:55:42;99859.02;;;12.80;57.50
34696;BME280;75243;51.138;17.370;2024-03-22T15:58:47;99861.73;;;12.76;57.49
34696;BME280;75243;51.138;17.370;2024-03-22T16:01:50;99859.29;;;12.71;57.47
34696;BME280;75243;51.138;17.370;2024-03-22T16:04:54;99857.88;;;12.69;57.64
34696;BME280;75243;51.138;17.370;2024-03-22T16:07:58;99856.26;;;12.65;57.77
34696;BME280;75243;51.138;17.370;2024-03-22T16:11:01;99845.63;;;12.58;57.77
34696;BME280;75243;51.138;17.370;2024-03-22T16:14:02;99845.34;;;12.55;57.85
34696;BME280;75243;51.138;17.370;2024-03-22T16:20:29;99842.54;;;12.47;58.06
34696;BME280;75243;51.138;17.370;2024-03-22T16:23:33;99842.88;;;12.44;58.29
34696;BME280;75243;51.138;17.370;2024-03-22T16:26:33;99842.73;;;12.41;58.29
34696;BME280;75243;51.138;17.370;2024-03-22T16:29:37;99838.45;;;12.37;58.56
34696;BME280;75243;51.138;17.370;2024-03-22T16:32:40;99834.98;;;12.35;58.63
34696;BME280;75243;51.138;17.370;2024-03-22T16:35:46;99829.70;;;12.31;58.70